Norwegian Sun — C6RN3 — position and weather

sailwx.info

Track history (hours):
 
Tides and Currents Weather Stations Pressure Air Temp Water Temp Dewpoint Dewpoint Depression Visibility Wind Speed Wind Dir Waves Ship Positions

Norwegian Sun

Operator: Norwegian Cruise Line

Last reported at 2016-Aug-23 18:24 UTC. Time now 2016-Aug-26 13:46 UTC.
Position N 51°12' W 128°32'.

Type: Passenger vessel. MMSI: 311109000.

Date/timePositionNaut miles runAvg speedWind from/ knotsBaromVisibWave heightAir tempDewpointWater temp
2016-Aug-23 18:24N 51°12' W 128°32'1518.3
2016-Aug-23 17:33N 51°06' W 128°10'1717.4
2016-Aug-23 16:34N 50°58' W 127°45'1817.6
2016-Aug-23 15:34N 50°49' W 127°21'1918.5
2016-Aug-23 14:33N 50°41' W 126°54'5616.3
2016-Aug-23 11:06N 50°21' W 125°32'814.6
2016-Aug-23 10:33N 50°15' W 125°23'1414.1
2016-Aug-23 09:34N 50°03' W 125°14'1312.6
2016-Aug-23 08:33N 49°53' W 125°01'1212.3
2016-Aug-23 07:33N 49°44' W 124°49'1212.2
2016-Aug-23 06:33N 49°35' W 124°36'1312.6
2016-Aug-23 05:34N 49°27' W 124°21'1313.4
2016-Aug-23 04:33N 49°24' W 124°01'1413.6
2016-Aug-23 03:33N 49°22' W 123°40'9 9.2
2016-Aug-23 02:33N 49°26' W 123°28'6 6.5
2016-Aug-23 01:34N 49°29' W 123°18'1110.9
2016-Aug-23 00:33N 49°19' W 123°10'3 2.9
2016-Aug-22 23:32N 49°17' W 123°07'0 0.0
2016-Aug-22 22:32N 49°17' W 123°07'0 0.0
2016-Aug-22 21:32N 49°17' W 123°07'0 0.0
2016-Aug-22 20:32N 49°17' W 123°07'0 0.0
2016-Aug-22 19:32N 49°17' W 123°07'0 0.0
2016-Aug-22 18:32N 49°17' W 123°07'0 0.0
2016-Aug-22 17:32N 49°17' W 123°07'0 0.0
2016-Aug-22 16:32N 49°17' W 123°07'0 0.0
2016-Aug-22 15:32N 49°17' W 123°07'0 0.0
2016-Aug-22 14:32N 49°17' W 123°07'1 1.2
2016-Aug-22 13:34N 49°18' W 123°07'1010.1
2016-Aug-22 12:33N 49°19' W 123°23'1010.4
2016-Aug-22 11:34N 49°20' W 123°38'1010.1
2016-Aug-22 10:34N 49°22' W 123°54'1010.5
2016-Aug-22 09:33N 49°24' W 124°10'10 9.7
2016-Aug-22 08:34N 49°27' W 124°24'1010.2
2016-Aug-22 07:34N 49°34' W 124°35'1010.3
2016-Aug-22 06:33N 49°42' W 124°46'1010.2
2016-Aug-22 05:34N 49°49' W 124°56'1010.5
2016-Aug-22 04:33N 49°56' W 125°08'1211.8
2016-Aug-22 03:33N 50°06' W 125°18'1312.5
2016-Aug-22 02:33N 50°18' W 125°25'1413.1
2016-Aug-22 01:29N 50°22' W 125°46'4217.7
2016-Aug-21 23:06N 50°38' W 126°48'1119.8
2016-Aug-21 22:32N 50°43' W 127°03'1916.7
2016-Aug-21 21:22N 50°51' W 127°31'1619.6
2016-Aug-21 20:33N 51°00' W 127°52'  
2016-Aug-19 08:19N 58°09' W 135°17'1418.3
2016-Aug-19 07:33N 58°16' W 135°40'1918.7
2016-Aug-19 06:33N 58°18' W 136°15'2 0.4
2016-Aug-19 01:33N 58°19' W 136°11'2121.3
2016-Aug-19 00:33N 58°14' W 135°32'8 0.7
2016-Aug-18 13:33N 58°10' W 135°20'  
2016-Aug-14 00:16N 58°14' W 136°29'1114.9
2016-Aug-13 23:33N 58°19' W 136°11'1110.6
2016-Aug-13 22:33N 58°28' W 136°03'1313.4
2016-Aug-13 21:33N 58°41' W 136°10'1514.5
2016-Aug-13 20:31N 58°51' W 136°33'  
Track history (hours):
 
Tides and Currents Weather Stations Pressure Air Temp Water Temp Dewpoint Dewpoint Depression Visibility Wind Speed Wind Dir Waves Ship Positions

Norwegian Sun

Operator: Norwegian Cruise Line

Last reported at 2016-Aug-23 18:24 UTC. Time now 2016-Aug-26 13:46 UTC.
Position N 51°12' W 128°32'.

Type: Passenger vessel. MMSI: 311109000.

Date/timePositionNaut miles runAvg speedWind from/ knotsBaromVisibWave heightAir tempDewpointWater temp
2016-Aug-23 18:24N 51°12' W 128°32'1518.3
2016-Aug-23 17:33N 51°06' W 128°10'1717.4
2016-Aug-23 16:34N 50°58' W 127°45'1817.6
2016-Aug-23 15:34N 50°49' W 127°21'1918.5
2016-Aug-23 14:33N 50°41' W 126°54'5616.3
2016-Aug-23 11:06N 50°21' W 125°32'814.6
2016-Aug-23 10:33N 50°15' W 125°23'1414.1
2016-Aug-23 09:34N 50°03' W 125°14'1312.6
2016-Aug-23 08:33N 49°53' W 125°01'1212.3
2016-Aug-23 07:33N 49°44' W 124°49'1212.2
2016-Aug-23 06:33N 49°35' W 124°36'1312.6
2016-Aug-23 05:34N 49°27' W 124°21'1313.4
2016-Aug-23 04:33N 49°24' W 124°01'1413.6
2016-Aug-23 03:33N 49°22' W 123°40'9 9.2
2016-Aug-23 02:33N 49°26' W 123°28'6 6.5
2016-Aug-23 01:34N 49°29' W 123°18'1110.9
2016-Aug-23 00:33N 49°19' W 123°10'3 2.9
2016-Aug-22 23:32N 49°17' W 123°07'0 0.0
2016-Aug-22 22:32N 49°17' W 123°07'0 0.0
2016-Aug-22 21:32N 49°17' W 123°07'0 0.0
2016-Aug-22 20:32N 49°17' W 123°07'0 0.0
2016-Aug-22 19:32N 49°17' W 123°07'0 0.0
2016-Aug-22 18:32N 49°17' W 123°07'0 0.0
2016-Aug-22 17:32N 49°17' W 123°07'0 0.0
2016-Aug-22 16:32N 49°17' W 123°07'0 0.0
2016-Aug-22 15:32N 49°17' W 123°07'0 0.0
2016-Aug-22 14:32N 49°17' W 123°07'1 1.2
2016-Aug-22 13:34N 49°18' W 123°07'1010.1
2016-Aug-22 12:33N 49°19' W 123°23'1010.4
2016-Aug-22 11:34N 49°20' W 123°38'1010.1
2016-Aug-22 10:34N 49°22' W 123°54'1010.5
2016-Aug-22 09:33N 49°24' W 124°10'10 9.7
2016-Aug-22 08:34N 49°27' W 124°24'1010.2
2016-Aug-22 07:34N 49°34' W 124°35'1010.3
2016-Aug-22 06:33N 49°42' W 124°46'1010.2
2016-Aug-22 05:34N 49°49' W 124°56'1010.5
2016-Aug-22 04:33N 49°56' W 125°08'1211.8
2016-Aug-22 03:33N 50°06' W 125°18'1312.5
2016-Aug-22 02:33N 50°18' W 125°25'1413.1
2016-Aug-22 01:29N 50°22' W 125°46'4217.7
2016-Aug-21 23:06N 50°38' W 126°48'1119.8
2016-Aug-21 22:32N 50°43' W 127°03'1916.7
2016-Aug-21 21:22N 50°51' W 127°31'1619.6
2016-Aug-21 20:33N 51°00' W 127°52'  
2016-Aug-19 08:19N 58°09' W 135°17'1418.3
2016-Aug-19 07:33N 58°16' W 135°40'1918.7
2016-Aug-19 06:33N 58°18' W 136°15'2 0.4
2016-Aug-19 01:33N 58°19' W 136°11'2121.3
2016-Aug-19 00:33N 58°14' W 135°32'8 0.7
2016-Aug-18 13:33N 58°10' W 135°20'  
2016-Aug-14 00:16N 58°14' W 136°29'1114.9
2016-Aug-13 23:33N 58°19' W 136°11'1110.6
2016-Aug-13 22:33N 58°28' W 136°03'1313.4
2016-Aug-13 21:33N 58°41' W 136°10'1514.5
2016-Aug-13 20:31N 58°51' W 136°33'  

Dump ship's entire track history